createdAt,value
2022-12-04T00:02:20.904Z,101790.0
2022-12-04T00:07:20.896Z,101780.0
2022-12-04T00:12:20.899Z,101770.0
2022-12-04T00:17:20.894Z,101770.0
2022-12-04T00:22:20.943Z,101770.0
2022-12-04T00:27:20.906Z,101770.0
2022-12-04T00:32:20.908Z,101770.0
2022-12-04T00:37:20.914Z,101770.0
2022-12-04T00:42:20.912Z,101770.0
2022-12-04T00:47:20.914Z,101760.0
2022-12-04T00:52:20.918Z,101760.0
2022-12-04T00:57:20.934Z,101760.0
2022-12-04T01:02:20.951Z,101760.0
2022-12-04T01:07:20.926Z,101760.0
2022-12-04T01:12:21.227Z,101760.0
2022-12-04T01:17:20.939Z,101770.0
2022-12-04T01:22:20.928Z,101780.0
2022-12-04T01:27:20.936Z,101770.0
2022-12-04T01:32:20.932Z,101770.0
2022-12-04T01:37:21.009Z,101770.0
2022-12-04T01:42:20.948Z,101770.0
2022-12-04T01:47:20.942Z,101760.0
2022-12-04T01:52:20.943Z,101760.0
2022-12-04T01:57:20.949Z,101750.0
2022-12-04T02:02:21.071Z,101740.0
2022-12-04T02:07:20.955Z,101760.0
2022-12-04T02:12:20.954Z,101760.0
2022-12-04T02:17:20.959Z,101760.0
2022-12-04T02:22:20.960Z,101750.0
2022-12-04T02:27:21.033Z,101760.0
2022-12-04T02:32:20.966Z,101750.0
2022-12-04T02:37:20.966Z,101750.0
2022-12-04T02:42:20.965Z,101750.0
2022-12-04T02:47:20.968Z,101740.0
2022-12-04T02:52:20.972Z,101740.0
2022-12-04T02:57:20.990Z,101740.0
2022-12-04T03:02:20.996Z,101740.0
2022-12-04T03:07:20.982Z,101740.0
2022-12-04T03:12:21.067Z,101740.0
2022-12-04T03:17:20.984Z,101750.0
2022-12-04T03:22:20.985Z,101730.0
2022-12-04T03:27:20.996Z,101730.0
2022-12-04T03:32:20.990Z,101730.0
2022-12-04T03:37:20.998Z,101740.0
2022-12-04T03:42:20.996Z,101730.0
2022-12-04T03:47:21.001Z,101730.0
2022-12-04T03:52:21.000Z,101720.0
2022-12-04T03:57:21.016Z,101730.0
2022-12-04T04:02:21.076Z,101720.0
2022-12-04T04:07:21.004Z,101720.0
2022-12-04T04:12:21.108Z,101730.0
2022-12-04T04:17:21.011Z,101740.0
2022-12-04T04:22:21.015Z,101740.0
2022-12-04T04:27:21.010Z,101730.0
2022-12-04T04:32:21.026Z,101720.0
2022-12-04T04:37:21.011Z,101720.0
2022-12-04T04:42:21.020Z,101720.0
2022-12-04T04:47:21.026Z,101730.0
2022-12-04T04:52:21.025Z,101730.0
2022-12-04T04:57:21.027Z,101730.0
2022-12-04T05:02:21.048Z,101730.0
2022-12-04T05:07:21.035Z,101730.0
2022-12-04T05:17:21.037Z,101730.0
2022-12-04T05:22:21.039Z,101740.0
2022-12-04T05:27:21.049Z,101740.0
2022-12-04T05:32:21.052Z,101730.0
2022-12-04T05:37:21.046Z,101730.0
2022-12-04T05:42:21.052Z,101720.0
2022-12-04T05:47:21.047Z,101720.0
2022-12-04T05:52:21.073Z,101720.0
2022-12-04T05:57:25.241Z,101730.0
2022-12-04T06:02:21.111Z,101730.0
2022-12-04T06:07:21.062Z,101720.0
2022-12-04T06:12:21.062Z,101710.0
2022-12-04T06:17:21.114Z,101710.0
2022-12-04T06:22:21.068Z,101710.0
2022-12-04T06:27:28.836Z,101710.0
2022-12-04T06:32:21.711Z,101710.0
2022-12-04T06:37:21.090Z,101720.0
2022-12-04T06:42:21.094Z,101710.0
2022-12-04T06:47:21.079Z,101710.0
2022-12-04T06:52:21.084Z,101720.0
2022-12-04T06:57:21.087Z,101730.0
2022-12-04T07:02:21.179Z,101730.0
2022-12-04T07:07:21.093Z,101730.0
2022-12-04T07:12:21.096Z,101730.0
2022-12-04T07:17:21.097Z,101740.0
2022-12-04T07:22:21.100Z,101740.0
2022-12-04T07:27:21.095Z,101750.0
2022-12-04T07:32:21.103Z,101750.0
2022-12-04T07:37:21.124Z,101760.0
2022-12-04T07:42:24.088Z,101750.0
2022-12-04T07:47:21.180Z,101760.0
2022-12-04T07:52:21.111Z,101750.0
2022-12-04T07:57:21.112Z,101760.0
2022-12-04T08:02:21.115Z,101760.0
2022-12-04T08:07:21.132Z,101750.0
2022-12-04T08:12:21.125Z,101760.0
2022-12-04T08:17:21.196Z,101770.0
2022-12-04T08:22:25.004Z,101780.0
2022-12-04T08:27:21.123Z,101780.0
2022-12-04T08:32:21.182Z,101770.0
2022-12-04T08:37:21.135Z,101770.0
2022-12-04T08:42:21.139Z,101770.0
2022-12-04T08:47:21.180Z,101760.0
2022-12-04T08:52:21.144Z,101750.0
2022-12-04T08:57:21.142Z,101760.0
2022-12-04T09:02:21.150Z,101760.0
2022-12-04T09:07:21.142Z,101760.0
2022-12-04T09:12:21.151Z,101760.0
2022-12-04T09:17:21.226Z,101770.0
2022-12-04T09:22:21.156Z,101780.0
2022-12-04T09:27:21.163Z,101780.0
2022-12-04T09:32:21.171Z,101780.0
2022-12-04T09:37:21.162Z,101770.0
2022-12-04T09:42:21.160Z,101790.0
2022-12-04T09:47:21.166Z,101770.0
2022-12-04T09:52:22.161Z,101780.0
2022-12-04T09:57:21.177Z,101770.0
2022-12-04T10:02:21.417Z,101770.0
2022-12-04T10:07:21.169Z,101770.0
2022-12-04T10:12:21.169Z,101770.0
2022-12-04T10:17:21.176Z,101770.0
2022-12-04T10:22:21.180Z,101780.0
2022-12-04T10:27:21.198Z,101770.0
2022-12-04T10:32:21.189Z,101760.0
2022-12-04T10:37:21.184Z,101760.0
2022-12-04T10:42:21.199Z,101770.0
2022-12-04T10:47:21.192Z,101770.0
2022-12-04T10:52:21.200Z,101770.0
2022-12-04T10:57:21.198Z,101760.0
2022-12-04T11:02:21.284Z,101750.0
2022-12-04T11:07:21.214Z,101750.0
2022-12-04T11:12:21.203Z,101750.0
2022-12-04T11:17:21.198Z,101740.0
2022-12-04T11:22:21.212Z,101730.0
2022-12-04T11:27:21.210Z,101730.0
2022-12-04T11:32:21.220Z,101720.0
2022-12-04T11:37:21.239Z,101710.0
2022-12-04T11:42:21.228Z,101710.0
2022-12-04T11:47:21.228Z,101720.0
2022-12-04T11:52:21.225Z,101710.0
2022-12-04T11:57:21.220Z,101700.0
2022-12-04T12:02:21.381Z,101700.0
2022-12-04T12:07:21.229Z,101690.0
2022-12-04T12:12:21.236Z,101680.0
2022-12-04T12:17:21.241Z,101680.0
2022-12-04T12:22:21.236Z,101690.0
2022-12-04T12:27:21.246Z,101680.0
2022-12-04T12:32:21.308Z,101670.0
2022-12-04T12:37:21.242Z,101670.0
2022-12-04T12:42:21.241Z,101680.0
2022-12-04T12:47:21.248Z,101670.0
2022-12-04T12:52:21.258Z,101660.0
2022-12-04T12:57:21.254Z,101660.0
2022-12-04T13:02:21.297Z,101660.0
2022-12-04T13:07:21.269Z,101660.0
2022-12-04T13:12:21.263Z,101650.0
2022-12-04T13:17:21.264Z,101660.0
2022-12-04T13:22:21.286Z,101660.0
2022-12-04T13:27:21.273Z,101670.0
2022-12-04T13:32:25.574Z,101670.0
2022-12-04T13:37:21.366Z,101660.0
2022-12-04T13:42:21.276Z,101660.0
2022-12-04T13:47:21.282Z,101650.0
2022-12-04T13:52:21.291Z,101660.0
2022-12-04T13:57:21.402Z,101650.0
2022-12-04T14:02:21.375Z,101650.0
2022-12-04T14:07:21.290Z,101650.0
2022-12-04T14:12:21.295Z,101660.0
2022-12-04T14:17:21.302Z,101650.0
2022-12-04T14:22:21.303Z,101650.0
2022-12-04T14:27:21.316Z,101650.0
2022-12-04T14:32:21.308Z,101650.0
2022-12-04T14:37:21.305Z,101650.0
2022-12-04T14:42:21.318Z,101660.0
2022-12-04T14:47:21.311Z,101650.0
2022-12-04T14:52:21.305Z,101650.0
2022-12-04T14:57:21.310Z,101660.0
2022-12-04T15:02:21.320Z,101660.0
2022-12-04T15:07:21.315Z,101670.0
2022-12-04T15:12:21.325Z,101660.0
2022-12-04T15:17:21.326Z,101670.0
2022-12-04T15:22:21.319Z,101660.0
2022-12-04T15:27:21.341Z,101660.0
2022-12-04T15:32:21.331Z,101660.0
2022-12-04T15:37:21.331Z,101670.0
2022-12-04T15:42:21.336Z,101670.0
2022-12-04T15:47:21.332Z,101670.0
2022-12-04T15:52:21.335Z,101660.0
2022-12-04T15:57:21.342Z,101670.0
2022-12-04T16:02:21.340Z,101680.0
2022-12-04T16:07:21.370Z,101670.0
2022-12-04T16:12:21.347Z,101680.0
2022-12-04T16:17:21.349Z,101670.0
2022-12-04T16:22:21.360Z,101690.0
2022-12-04T16:27:21.354Z,101690.0
2022-12-04T16:32:21.361Z,101680.0
2022-12-04T16:37:21.361Z,101690.0
2022-12-04T16:42:21.368Z,101690.0
2022-12-04T16:47:21.360Z,101680.0
2022-12-04T16:52:21.373Z,101690.0
2022-12-04T16:57:21.369Z,101700.0
2022-12-04T17:02:21.445Z,101690.0
2022-12-04T17:07:21.375Z,101690.0
2022-12-04T17:12:21.373Z,101700.0
2022-12-04T17:17:21.377Z,101700.0
2022-12-04T17:22:21.388Z,101700.0
2022-12-04T17:27:21.383Z,101700.0
2022-12-04T17:32:21.392Z,101700.0
2022-12-04T17:37:21.391Z,101710.0
2022-12-04T17:42:21.397Z,101710.0
2022-12-04T17:47:21.486Z,101710.0
2022-12-04T17:52:21.399Z,101720.0
2022-12-04T17:57:21.399Z,101730.0
2022-12-04T18:02:21.463Z,101730.0
2022-12-04T18:07:21.401Z,101720.0
2022-12-04T18:12:21.512Z,101720.0
2022-12-04T18:17:21.398Z,101720.0
2022-12-04T18:22:21.413Z,101720.0
2022-12-04T18:27:21.409Z,101710.0
2022-12-04T18:32:21.414Z,101720.0
2022-12-04T18:37:21.540Z,101720.0
2022-12-04T18:42:21.426Z,101710.0
2022-12-04T18:47:21.421Z,101710.0
2022-12-04T18:52:21.426Z,101710.0
2022-12-04T18:57:21.420Z,101700.0
2022-12-04T19:02:21.514Z,101720.0
2022-12-04T19:07:21.439Z,101710.0
2022-12-04T19:12:21.435Z,101710.0
2022-12-04T19:17:21.436Z,101710.0
2022-12-04T19:22:21.449Z,101710.0
2022-12-04T19:27:21.460Z,101710.0
2022-12-04T19:32:21.502Z,101710.0
2022-12-04T19:37:21.452Z,101700.0
2022-12-04T19:42:21.447Z,101710.0
2022-12-04T19:47:21.750Z,101720.0
2022-12-04T19:52:21.458Z,101720.0
2022-12-04T19:57:21.458Z,101720.0
2022-12-04T20:02:21.505Z,101720.0
2022-12-04T20:07:21.465Z,101730.0
2022-12-04T20:12:21.770Z,101720.0
2022-12-04T20:17:21.467Z,101720.0
2022-12-04T20:22:21.509Z,101730.0
2022-12-04T20:27:21.468Z,101720.0
2022-12-04T20:32:21.476Z,101720.0
2022-12-04T20:37:21.649Z,101720.0
2022-12-04T20:42:21.492Z,101720.0
2022-12-04T20:47:21.481Z,101710.0
2022-12-04T20:52:21.483Z,101710.0
2022-12-04T20:57:21.487Z,101710.0
2022-12-04T21:02:21.546Z,101720.0
2022-12-04T21:07:21.488Z,101730.0
2022-12-04T21:12:21.495Z,101720.0
2022-12-04T21:17:21.488Z,101730.0
2022-12-04T21:22:21.495Z,101730.0
2022-12-04T21:27:21.596Z,101730.0
2022-12-04T21:32:21.502Z,101720.0
2022-12-04T21:37:21.500Z,101720.0
2022-12-04T21:42:21.526Z,101720.0
2022-12-04T21:47:21.513Z,101720.0
2022-12-04T21:52:21.520Z,101730.0
2022-12-04T21:57:21.521Z,101720.0
2022-12-04T22:02:21.610Z,101720.0
2022-12-04T22:07:21.519Z,101720.0
2022-12-04T22:12:48.060Z,101710.0
2022-12-04T22:17:21.528Z,101710.0
2022-12-04T22:22:21.531Z,101720.0
2022-12-04T22:27:21.533Z,101730.0
2022-12-04T22:32:21.536Z,101730.0
2022-12-04T22:37:21.539Z,101720.0
2022-12-04T22:42:21.539Z,101720.0
2022-12-04T22:47:21.542Z,101730.0
2022-12-04T22:52:21.547Z,101730.0
2022-12-04T22:57:21.544Z,101720.0
2022-12-04T23:02:21.549Z,101730.0
2022-12-04T23:07:21.553Z,101720.0
2022-12-04T23:12:21.556Z,101730.0
2022-12-04T23:17:21.558Z,101730.0
2022-12-04T23:22:21.560Z,101720.0
2022-12-04T23:27:21.555Z,101730.0
2022-12-04T23:32:21.568Z,101720.0
2022-12-04T23:37:21.564Z,101720.0
2022-12-04T23:42:21.568Z,101720.0
2022-12-04T23:47:21.782Z,101720.0
2022-12-04T23:52:21.581Z,101720.0
